sensor_id;sensor_type;location;lat;lon;timestamp;pressure;altitude;pressure_sealevel;temperature;humidity
32791;BME280;19143;59.322;14.502;2023-02-12T00:01:13;101323.47;;;-4.40;100.00
32791;BME280;19143;59.322;14.502;2023-02-12T00:03:41;101313.50;;;-4.59;100.00
32791;BME280;19143;59.322;14.502;2023-02-12T00:06:09;101327.41;;;-4.50;100.00
32791;BME280;19143;59.322;14.502;2023-02-12T00:08:36;101336.53;;;-4.53;100.00
32791;BME280;19143;59.322;14.502;2023-02-12T00:11:08;101332.59;;;-4.57;100.00
32791;BME280;19143;59.322;14.502;2023-02-12T00:13:35;101332.06;;;-4.52;100.00
32791;BME280;19143;59.322;14.502;2023-02-12T00:16:06;101335.78;;;-4.47;100.00
32791;BME280;19143;59.322;14.502;2023-02-12T00:18:33;101344.28;;;-4.30;100.00
32791;BME280;19143;59.322;14.502;2023-02-12T00:21:00;101349.44;;;-3.86;100.00
32791;BME280;19143;59.322;14.502;2023-02-12T00:23:28;101327.56;;;-4.01;100.00
32791;BME280;19143;59.322;14.502;2023-02-12T00:25:54;101342.72;;;-4.25;100.00
32791;BME280;19143;59.322;14.502;2023-02-12T00:28:21;101339.81;;;-4.51;100.00
32791;BME280;19143;59.322;14.502;2023-02-12T00:30:48;101330.06;;;-4.65;100.00
32791;BME280;19143;59.322;14.502;2023-02-12T00:33:17;101322.34;;;-4.67;100.00
32791;BME280;19143;59.322;14.502;2023-02-12T00:35:43;101329.34;;;-4.59;100.00
32791;BME280;19143;59.322;14.502;2023-02-12T00:38:10;101330.16;;;-4.59;100.00
32791;BME280;19143;59.322;14.502;2023-02-12T00:40:40;101333.00;;;-4.60;100.00
32791;BME280;19143;59.322;14.502;2023-02-12T00:43:07;101340.81;;;-4.52;100.00
32791;BME280;19143;59.322;14.502;2023-02-12T00:45:34;101353.13;;;-4.38;100.00
32791;BME280;19143;59.322;14.502;2023-02-12T00:48:02;101312.03;;;-4.47;100.00
32791;BME280;19143;59.322;14.502;2023-02-12T00:50:31;101321.84;;;-4.41;100.00
32791;BME280;19143;59.322;14.502;2023-02-12T00:52:58;101331.06;;;-4.51;100.00
32791;BME280;19143;59.322;14.502;2023-02-12T00:55:32;101321.56;;;-4.31;100.00
32791;BME280;19143;59.322;14.502;2023-02-12T00:58:00;101322.81;;;-4.27;100.00
32791;BME280;19143;59.322;14.502;2023-02-12T01:00:28;101320.97;;;-4.48;100.00
32791;BME280;19143;59.322;14.502;2023-02-12T01:02:56;101294.44;;;-4.61;100.00
32791;BME280;19143;59.322;14.502;2023-02-12T01:05:23;101308.63;;;-4.62;100.00
32791;BME280;19143;59.322;14.502;2023-02-12T01:07:53;101303.28;;;-4.69;100.00
32791;BME280;19143;59.322;14.502;2023-02-12T01:10:24;101303.81;;;-4.73;100.00
32791;BME280;19143;59.322;14.502;2023-02-12T01:12:52;101286.84;;;-4.85;100.00
32791;BME280;19143;59.322;14.502;2023-02-12T01:15:19;101273.94;;;-4.80;100.00
32791;BME280;19143;59.322;14.502;2023-02-12T01:17:46;101281.50;;;-4.56;100.00
32791;BME280;19143;59.322;14.502;2023-02-12T01:20:16;101301.84;;;-4.50;100.00
32791;BME280;19143;59.322;14.502;2023-02-12T01:22:44;101291.31;;;-4.50;100.00
32791;BME280;19143;59.322;14.502;2023-02-12T01:25:21;101300.25;;;-4.51;100.00
32791;BME280;19143;59.322;14.502;2023-02-12T01:27:51;101278.50;;;-4.53;100.00
32791;BME280;19143;59.322;14.502;2023-02-12T01:30:18;101277.75;;;-4.47;100.00
32791;BME280;19143;59.322;14.502;2023-02-12T01:33:02;101285.06;;;-4.28;100.00
32791;BME280;19143;59.322;14.502;2023-02-12T01:35:30;101287.38;;;-4.39;100.00
32791;BME280;19143;59.322;14.502;2023-02-12T01:37:57;101274.91;;;-4.31;100.00
32791;BME280;19143;59.322;14.502;2023-02-12T01:40:25;101251.91;;;-4.37;100.00
32791;BME280;19143;59.322;14.502;2023-02-12T01:42:59;101298.22;;;-3.64;100.00
32791;BME280;19143;59.322;14.502;2023-02-12T01:45:49;101293.78;;;-3.63;100.00
32791;BME280;19143;59.322;14.502;2023-02-12T01:48:20;101305.28;;;-3.71;100.00
32791;BME280;19143;59.322;14.502;2023-02-12T01:50:50;101294.00;;;-3.86;100.00
32791;BME280;19143;59.322;14.502;2023-02-12T01:53:25;101294.75;;;-3.92;100.00
32791;BME280;19143;59.322;14.502;2023-02-12T01:55:59;101265.72;;;-4.13;100.00
32791;BME280;19143;59.322;14.502;2023-02-12T01:58:33;101278.28;;;-4.15;100.00
32791;BME280;19143;59.322;14.502;2023-02-12T02:01:04;101255.25;;;-4.28;100.00
32791;BME280;19143;59.322;14.502;2023-02-12T02:03:34;101277.41;;;-4.23;100.00
32791;BME280;19143;59.322;14.502;2023-02-12T02:06:07;101277.84;;;-4.19;100.00
32791;BME280;19143;59.322;14.502;2023-02-12T02:08:36;101280.69;;;-4.21;100.00
32791;BME280;19143;59.322;14.502;2023-02-12T02:11:11;101248.16;;;-4.28;100.00
32791;BME280;19143;59.322;14.502;2023-02-12T02:13:56;101245.75;;;-4.23;100.00
32791;BME280;19143;59.322;14.502;2023-02-12T02:16:44;101240.53;;;-4.16;100.00
32791;BME280;19143;59.322;14.502;2023-02-12T02:19:23;101238.00;;;-4.24;100.00
32791;BME280;19143;59.322;14.502;2023-02-12T02:22:16;101254.53;;;-4.15;100.00
32791;BME280;19143;59.322;14.502;2023-02-12T02:28:01;101249.38;;;-4.24;100.00
32791;BME280;19143;59.322;14.502;2023-02-12T02:30:39;101242.59;;;-4.33;100.00
32791;BME280;19143;59.322;14.502;2023-02-12T02:33:24;101235.97;;;-4.29;100.00
32791;BME280;19143;59.322;14.502;2023-02-12T02:36:02;101221.63;;;-4.41;100.00
32791;BME280;19143;59.322;14.502;2023-02-12T02:38:38;101232.75;;;-4.24;100.00
32791;BME280;19143;59.322;14.502;2023-02-12T02:41:14;101206.94;;;-4.50;100.00
32791;BME280;19143;59.322;14.502;2023-02-12T02:43:48;101226.53;;;-4.38;100.00
32791;BME280;19143;59.322;14.502;2023-02-12T02:46:25;101229.00;;;-4.36;100.00
32791;BME280;19143;59.322;14.502;2023-02-12T02:48:57;101214.59;;;-4.34;100.00
32791;BME280;19143;59.322;14.502;2023-02-12T02:51:28;101200.94;;;-4.44;100.00
32791;BME280;19143;59.322;14.502;2023-02-12T02:54:01;101207.94;;;-4.30;100.00
32791;BME280;19143;59.322;14.502;2023-02-12T02:56:32;101195.19;;;-4.47;100.00
32791;BME280;19143;59.322;14.502;2023-02-12T02:59:03;101204.03;;;-4.34;100.00
32791;BME280;19143;59.322;14.502;2023-02-12T03:01:37;101170.78;;;-4.56;100.00
32791;BME280;19143;59.322;14.502;2023-02-12T03:04:06;101202.97;;;-4.39;100.00
32791;BME280;19143;59.322;14.502;2023-02-12T03:06:39;101190.84;;;-4.34;100.00
32791;BME280;19143;59.322;14.502;2023-02-12T03:09:15;101173.78;;;-4.38;100.00
32791;BME280;19143;59.322;14.502;2023-02-12T03:11:45;101190.13;;;-4.28;100.00
32791;BME280;19143;59.322;14.502;2023-02-12T03:14:16;101161.59;;;-4.39;100.00
32791;BME280;19143;59.322;14.502;2023-02-12T03:16:54;101194.63;;;-4.22;100.00
32791;BME280;19143;59.322;14.502;2023-02-12T03:19:25;101194.69;;;-4.15;100.00
32791;BME280;19143;59.322;14.502;2023-02-12T03:21:59;101176.78;;;-4.20;100.00
32791;BME280;19143;59.322;14.502;2023-02-12T03:24:31;101199.00;;;-4.07;100.00
32791;BME280;19143;59.322;14.502;2023-02-12T03:27:05;101207.41;;;-3.97;100.00
32791;BME280;19143;59.322;14.502;2023-02-12T03:29:33;101199.75;;;-3.92;100.00
32791;BME280;19143;59.322;14.502;2023-02-12T03:32:15;101196.84;;;-3.97;100.00
32791;BME280;19143;59.322;14.502;2023-02-12T03:34:51;101207.03;;;-3.94;100.00
32791;BME280;19143;59.322;14.502;2023-02-12T03:37:26;101198.25;;;-4.01;100.00
32791;BME280;19143;59.322;14.502;2023-02-12T03:39:57;101209.66;;;-3.94;100.00
32791;BME280;19143;59.322;14.502;2023-02-12T03:42:33;101216.16;;;-3.69;100.00
32791;BME280;19143;59.322;14.502;2023-02-12T03:45:03;101195.81;;;-3.75;100.00
32791;BME280;19143;59.322;14.502;2023-02-12T03:47:43;101207.97;;;-3.74;100.00
32791;BME280;19143;59.322;14.502;2023-02-12T03:50:16;101201.53;;;-3.65;100.00
32791;BME280;19143;59.322;14.502;2023-02-12T03:52:45;101205.09;;;-3.79;100.00
32791;BME280;19143;59.322;14.502;2023-02-12T03:55:18;101196.41;;;-3.73;100.00
32791;BME280;19143;59.322;14.502;2023-02-12T03:57:49;101205.97;;;-3.72;100.00
32791;BME280;19143;59.322;14.502;2023-02-12T04:00:20;101188.03;;;-3.49;100.00
32791;BME280;19143;59.322;14.502;2023-02-12T04:02:48;101201.22;;;-3.49;100.00
32791;BME280;19143;59.322;14.502;2023-02-12T04:05:19;101191.38;;;-3.68;100.00
32791;BME280;19143;59.322;14.502;2023-02-12T04:07:50;101197.53;;;-3.61;100.00
32791;BME280;19143;59.322;14.502;2023-02-12T04:10:21;101210.50;;;-3.66;100.00
32791;BME280;19143;59.322;14.502;2023-02-12T04:12:54;101204.81;;;-3.63;100.00
32791;BME280;19143;59.322;14.502;2023-02-12T04:15:32;101208.50;;;-3.57;100.00
32791;BME280;19143;59.322;14.502;2023-02-12T04:18:06;101211.09;;;-3.64;100.00
32791;BME280;19143;59.322;14.502;2023-02-12T04:20:41;101201.78;;;-3.60;100.00
32791;BME280;19143;59.322;14.502;2023-02-12T04:23:20;101193.31;;;-3.83;100.00
32791;BME280;19143;59.322;14.502;2023-02-12T04:25:55;101207.38;;;-3.76;100.00
32791;BME280;19143;59.322;14.502;2023-02-12T04:28:35;101225.72;;;-3.68;100.00
32791;BME280;19143;59.322;14.502;2023-02-12T04:31:08;101223.16;;;-3.55;100.00
32791;BME280;19143;59.322;14.502;2023-02-12T04:33:43;101228.97;;;-3.66;100.00
32791;BME280;19143;59.322;14.502;2023-02-12T04:36:15;101218.88;;;-3.56;100.00
32791;BME280;19143;59.322;14.502;2023-02-12T04:38:51;101215.78;;;-3.66;100.00
32791;BME280;19143;59.322;14.502;2023-02-12T04:41:19;101214.53;;;-3.70;100.00
32791;BME280;19143;59.322;14.502;2023-02-12T04:43:46;101214.22;;;-3.54;100.00
32791;BME280;19143;59.322;14.502;2023-02-12T04:46:13;101217.78;;;-3.68;100.00
32791;BME280;19143;59.322;14.502;2023-02-12T04:48:49;101223.06;;;-3.68;100.00
32791;BME280;19143;59.322;14.502;2023-02-12T04:51:17;101216.13;;;-3.41;100.00
32791;BME280;19143;59.322;14.502;2023-02-12T04:53:44;101220.47;;;-3.27;100.00
32791;BME280;19143;59.322;14.502;2023-02-12T04:56:12;101221.81;;;-3.37;100.00
32791;BME280;19143;59.322;14.502;2023-02-12T04:58:39;101214.31;;;-3.40;100.00
32791;BME280;19143;59.322;14.502;2023-02-12T05:01:07;101207.13;;;-3.47;100.00
32791;BME280;19143;59.322;14.502;2023-02-12T05:03:34;101222.75;;;-3.52;100.00
32791;BME280;19143;59.322;14.502;2023-02-12T05:06:04;101238.22;;;-3.49;100.00
32791;BME280;19143;59.322;14.502;2023-02-12T05:08:31;101223.25;;;-3.41;100.00
32791;BME280;19143;59.322;14.502;2023-02-12T05:11:03;101211.88;;;-3.35;100.00
32791;BME280;19143;59.322;14.502;2023-02-12T05:13:30;101215.22;;;-3.20;100.00
32791;BME280;19143;59.322;14.502;2023-02-12T05:15:57;101201.44;;;-3.16;100.00
32791;BME280;19143;59.322;14.502;2023-02-12T05:18:24;101203.91;;;-3.01;100.00
32791;BME280;19143;59.322;14.502;2023-02-12T05:20:55;101202.75;;;-2.92;100.00
32791;BME280;19143;59.322;14.502;2023-02-12T05:23:25;101190.56;;;-2.80;100.00
32791;BME280;19143;59.322;14.502;2023-02-12T05:25:52;101182.06;;;-2.69;100.00
32791;BME280;19143;59.322;14.502;2023-02-12T05:28:19;101180.03;;;-2.67;100.00
32791;BME280;19143;59.322;14.502;2023-02-12T05:30:46;101176.38;;;-2.65;100.00
32791;BME280;19143;59.322;14.502;2023-02-12T05:33:13;101183.53;;;-2.33;100.00
32791;BME280;19143;59.322;14.502;2023-02-12T05:35:41;101186.00;;;-2.25;100.00
32791;BME280;19143;59.322;14.502;2023-02-12T05:38:08;101168.06;;;-1.97;100.00
32791;BME280;19143;59.322;14.502;2023-02-12T05:40:36;101170.66;;;-1.57;100.00
32791;BME280;19143;59.322;14.502;2023-02-12T05:43:04;101165.50;;;-1.39;100.00
32791;BME280;19143;59.322;14.502;2023-02-12T05:45:31;101185.59;;;-1.11;100.00
32791;BME280;19143;59.322;14.502;2023-02-12T05:47:58;101186.16;;;-0.96;100.00
32791;BME280;19143;59.322;14.502;2023-02-12T05:50:27;101182.22;;;-0.87;100.00
32791;BME280;19143;59.322;14.502;2023-02-12T05:52:54;101171.88;;;-0.95;100.00
32791;BME280;19143;59.322;14.502;2023-02-12T05:55:21;101177.53;;;-0.85;100.00
32791;BME280;19143;59.322;14.502;2023-02-12T05:57:49;101179.81;;;-1.02;100.00
32791;BME280;19143;59.322;14.502;2023-02-12T06:00:17;101159.50;;;-1.15;100.00
32791;BME280;19143;59.322;14.502;2023-02-12T06:02:44;101180.63;;;-1.01;100.00
32791;BME280;19143;59.322;14.502;2023-02-12T06:05:11;101166.63;;;-1.15;100.00
32791;BME280;19143;59.322;14.502;2023-02-12T06:07:38;101169.53;;;-0.79;100.00
32791;BME280;19143;59.322;14.502;2023-02-12T06:10:06;101160.56;;;-0.84;100.00
32791;BME280;19143;59.322;14.502;2023-02-12T06:12:33;101149.13;;;-0.85;100.00
32791;BME280;19143;59.322;14.502;2023-02-12T06:15:01;101174.03;;;-0.79;100.00
32791;BME280;19143;59.322;14.502;2023-02-12T06:17:29;101160.16;;;-0.81;100.00
32791;BME280;19143;59.322;14.502;2023-02-12T06:19:55;101164.28;;;-0.85;100.00
32791;BME280;19143;59.322;14.502;2023-02-12T06:22:22;101127.75;;;-0.90;100.00
32791;BME280;19143;59.322;14.502;2023-02-12T06:24:49;101141.59;;;-0.81;100.00
32791;BME280;19143;59.322;14.502;2023-02-12T06:27:16;101142.97;;;-0.72;100.00
32791;BME280;19143;59.322;14.502;2023-02-12T06:29:43;101154.53;;;-0.60;100.00
32791;BME280;19143;59.322;14.502;2023-02-12T06:32:11;101148.97;;;-0.58;100.00
32791;BME280;19143;59.322;14.502;2023-02-12T06:34:39;101143.47;;;-0.57;100.00
32791;BME280;19143;59.322;14.502;2023-02-12T06:37:06;101156.88;;;-0.45;100.00
32791;BME280;19143;59.322;14.502;2023-02-12T06:39:33;101149.28;;;-0.42;100.00
32791;BME280;19143;59.322;14.502;2023-02-12T06:42:00;101152.16;;;-0.43;100.00
32791;BME280;19143;59.322;14.502;2023-02-12T06:44:27;101142.84;;;-0.27;100.00
32791;BME280;19143;59.322;14.502;2023-02-12T06:46:54;101140.63;;;-0.30;100.00
32791;BME280;19143;59.322;14.502;2023-02-12T06:49:24;101130.00;;;-0.30;100.00
32791;BME280;19143;59.322;14.502;2023-02-12T06:51:51;101130.69;;;-0.17;100.00
32791;BME280;19143;59.322;14.502;2023-02-12T06:54:18;101129.53;;;-0.21;100.00
32791;BME280;19143;59.322;14.502;2023-02-12T06:56:45;101130.16;;;-0.25;100.00
32791;BME280;19143;59.322;14.502;2023-02-12T06:59:14;101144.22;;;-0.18;100.00
32791;BME280;19143;59.322;14.502;2023-02-12T07:01:41;101149.34;;;0.02;100.00
32791;BME280;19143;59.322;14.502;2023-02-12T07:04:09;101135.91;;;-0.04;100.00
32791;BME280;19143;59.322;14.502;2023-02-12T07:06:38;101134.28;;;-0.05;100.00
32791;BME280;19143;59.322;14.502;2023-02-12T07:09:05;101126.03;;;0.04;100.00
32791;BME280;19143;59.322;14.502;2023-02-12T07:11:34;101129.63;;;0.09;100.00
32791;BME280;19143;59.322;14.502;2023-02-12T07:14:01;101104.47;;;-0.07;100.00
32791;BME280;19143;59.322;14.502;2023-02-12T07:16:28;101107.22;;;0.05;100.00
32791;BME280;19143;59.322;14.502;2023-02-12T07:18:55;101103.88;;;0.10;100.00
32791;BME280;19143;59.322;14.502;2023-02-12T07:21:22;101119.25;;;0.26;100.00
32791;BME280;19143;59.322;14.502;2023-02-12T07:23:51;101123.78;;;0.25;100.00
32791;BME280;19143;59.322;14.502;2023-02-12T07:26:19;101118.31;;;0.20;100.00
32791;BME280;19143;59.322;14.502;2023-02-12T07:28:47;101116.88;;;0.18;100.00
32791;BME280;19143;59.322;14.502;2023-02-12T07:31:22;101120.38;;;0.36;100.00
32791;BME280;19143;59.322;14.502;2023-02-12T07:33:53;101113.72;;;0.27;100.00
32791;BME280;19143;59.322;14.502;2023-02-12T07:36:21;101115.78;;;0.44;100.00
32791;BME280;19143;59.322;14.502;2023-02-12T07:38:48;101127.69;;;0.41;100.00
32791;BME280;19143;59.322;14.502;2023-02-12T07:41:19;101115.94;;;0.30;100.00
32791;BME280;19143;59.322;14.502;2023-02-12T07:43:47;101122.00;;;0.37;100.00
32791;BME280;19143;59.322;14.502;2023-02-12T07:46:18;101130.25;;;0.29;100.00
32791;BME280;19143;59.322;14.502;2023-02-12T07:48:46;101115.44;;;0.40;100.00
32791;BME280;19143;59.322;14.502;2023-02-12T07:51:16;101110.41;;;0.50;100.00
32791;BME280;19143;59.322;14.502;2023-02-12T07:53:43;101106.78;;;0.45;100.00
32791;BME280;19143;59.322;14.502;2023-02-12T07:56:12;101097.34;;;0.49;100.00
32791;BME280;19143;59.322;14.502;2023-02-12T07:58:42;101112.91;;;0.63;100.00
32791;BME280;19143;59.322;14.502;2023-02-12T08:01:12;101116.06;;;0.72;100.00
32791;BME280;19143;59.322;14.502;2023-02-12T08:03:40;101103.69;;;0.66;100.00
32791;BME280;19143;59.322;14.502;2023-02-12T08:06:09;101107.19;;;0.78;100.00
32791;BME280;19143;59.322;14.502;2023-02-12T08:08:36;101113.84;;;0.69;100.00
32791;BME280;19143;59.322;14.502;2023-02-12T08:11:05;101121.72;;;0.94;100.00
32791;BME280;19143;59.322;14.502;2023-02-12T08:13:32;101121.47;;;0.84;100.00
32791;BME280;19143;59.322;14.502;2023-02-12T08:16:05;101110.66;;;0.79;100.00
32791;BME280;19143;59.322;14.502;2023-02-12T08:18:33;101123.44;;;0.88;100.00
32791;BME280;19143;59.322;14.502;2023-02-12T08:21:06;101102.06;;;0.95;100.00
32791;BME280;19143;59.322;14.502;2023-02-12T08:23:33;101091.97;;;0.85;100.00
32791;BME280;19143;59.322;14.502;2023-02-12T08:26:10;101100.59;;;0.99;100.00
32791;BME280;19143;59.322;14.502;2023-02-12T08:28:39;101105.91;;;0.99;100.00
32791;BME280;19143;59.322;14.502;2023-02-12T08:31:11;101126.56;;;1.15;100.00
32791;BME280;19143;59.322;14.502;2023-02-12T08:33:38;101136.19;;;1.28;100.00
32791;BME280;19143;59.322;14.502;2023-02-12T08:36:08;101127.06;;;1.24;100.00
32791;BME280;19143;59.322;14.502;2023-02-12T08:38:36;101117.38;;;1.11;100.00
32791;BME280;19143;59.322;14.502;2023-02-12T08:41:05;101119.06;;;1.24;100.00
32791;BME280;19143;59.322;14.502;2023-02-12T08:43:38;101125.47;;;1.46;100.00
32791;BME280;19143;59.322;14.502;2023-02-12T08:46:08;101121.19;;;1.45;100.00
32791;BME280;19143;59.322;14.502;2023-02-12T08:48:36;101135.69;;;1.49;100.00
32791;BME280;19143;59.322;14.502;2023-02-12T08:51:07;101136.38;;;1.56;100.00
32791;BME280;19143;59.322;14.502;2023-02-12T08:53:35;101127.25;;;1.64;100.00
32791;BME280;19143;59.322;14.502;2023-02-12T08:56:05;101118.09;;;1.71;100.00
32791;BME280;19143;59.322;14.502;2023-02-12T08:58:33;101120.91;;;1.76;100.00
32791;BME280;19143;59.322;14.502;2023-02-12T09:01:03;101108.63;;;1.75;100.00
32791;BME280;19143;59.322;14.502;2023-02-12T09:03:31;101131.22;;;1.96;100.00
32791;BME280;19143;59.322;14.502;2023-02-12T09:06:01;101103.31;;;1.75;100.00
32791;BME280;19143;59.322;14.502;2023-02-12T09:08:29;101104.25;;;1.93;100.00
32791;BME280;19143;59.322;14.502;2023-02-12T09:10:56;101118.84;;;2.02;100.00
32791;BME280;19143;59.322;14.502;2023-02-12T09:13:24;101094.97;;;1.83;100.00
32791;BME280;19143;59.322;14.502;2023-02-12T09:15:53;101109.69;;;1.86;100.00
32791;BME280;19143;59.322;14.502;2023-02-12T09:18:20;101113.03;;;2.05;100.00
32791;BME280;19143;59.322;14.502;2023-02-12T09:20:49;101112.56;;;2.08;100.00
32791;BME280;19143;59.322;14.502;2023-02-12T09:23:16;101107.25;;;2.08;100.00
32791;BME280;19143;59.322;14.502;2023-02-12T09:25:45;101124.16;;;2.25;100.00
32791;BME280;19143;59.322;14.502;2023-02-12T09:28:13;101122.28;;;2.25;100.00
32791;BME280;19143;59.322;14.502;2023-02-12T09:30:40;101122.06;;;2.27;100.00
32791;BME280;19143;59.322;14.502;2023-02-12T09:33:09;101109.78;;;2.26;100.00
32791;BME280;19143;59.322;14.502;2023-02-12T09:35:36;101123.78;;;2.33;100.00
32791;BME280;19143;59.322;14.502;2023-02-12T09:38:05;101135.72;;;2.42;100.00
32791;BME280;19143;59.322;14.502;2023-02-12T09:40:36;101133.06;;;2.42;100.00
32791;BME280;19143;59.322;14.502;2023-02-12T09:43:13;101129.44;;;2.48;100.00
32791;BME280;19143;59.322;14.502;2023-02-12T09:45:48;101120.06;;;2.46;100.00
32791;BME280;19143;59.322;14.502;2023-02-12T09:48:31;101126.91;;;2.53;100.00
32791;BME280;19143;59.322;14.502;2023-02-12T09:51:03;101121.06;;;2.56;100.00
32791;BME280;19143;59.322;14.502;2023-02-12T09:53:36;101116.56;;;2.57;100.00
32791;BME280;19143;59.322;14.502;2023-02-12T09:56:11;101120.97;;;2.63;100.00
32791;BME280;19143;59.322;14.502;2023-02-12T09:58:44;101118.25;;;2.75;100.00
32791;BME280;19143;59.322;14.502;2023-02-12T10:01:14;101124.03;;;2.83;100.00
32791;BME280;19143;59.322;14.502;2023-02-12T10:03:42;101127.19;;;2.80;100.00
32791;BME280;19143;59.322;14.502;2023-02-12T10:06:13;101107.94;;;2.78;100.00
32791;BME280;19143;59.322;14.502;2023-02-12T10:08:51;101105.88;;;2.69;100.00
32791;BME280;19143;59.322;14.502;2023-02-12T10:11:35;101116.38;;;2.87;100.00
32791;BME280;19143;59.322;14.502;2023-02-12T10:14:19;101110.66;;;2.95;100.00
32791;BME280;19143;59.322;14.502;2023-02-12T10:16:55;101118.38;;;3.25;100.00
32791;BME280;19143;59.322;14.502;2023-02-12T10:19:37;101111.44;;;3.24;100.00
32791;BME280;19143;59.322;14.502;2023-02-12T10:22:13;101115.28;;;3.16;100.00
32791;BME280;19143;59.322;14.502;2023-02-12T10:25:00;101100.06;;;3.00;100.00
32791;BME280;19143;59.322;14.502;2023-02-12T10:27:37;101125.00;;;3.06;100.00
32791;BME280;19143;59.322;14.502;2023-02-12T10:30:16;101135.38;;;3.19;100.00
32791;BME280;19143;59.322;14.502;2023-02-12T10:32:45;101133.59;;;3.24;100.00
32791;BME280;19143;59.322;14.502;2023-02-12T10:35:13;101130.81;;;3.02;100.00
32791;BME280;19143;59.322;14.502;2023-02-12T10:37:43;101125.97;;;3.16;100.00
32791;BME280;19143;59.322;14.502;2023-02-12T10:40:20;101125.59;;;3.24;100.00
32791;BME280;19143;59.322;14.502;2023-02-12T10:42:51;101134.59;;;3.35;100.00
32791;BME280;19143;59.322;14.502;2023-02-12T10:45:21;101125.13;;;3.27;100.00
32791;BME280;19143;59.322;14.502;2023-02-12T10:47:52;101108.72;;;3.07;100.00
32791;BME280;19143;59.322;14.502;2023-02-12T10:50:27;101122.22;;;3.29;100.00
32791;BME280;19143;59.322;14.502;2023-02-12T10:53:01;101114.25;;;3.17;100.00
32791;BME280;19143;59.322;14.502;2023-02-12T10:55:31;101124.88;;;3.29;100.00
32791;BME280;19143;59.322;14.502;2023-02-12T10:58:00;101117.09;;;3.27;100.00
32791;BME280;19143;59.322;14.502;2023-02-12T11:00:31;101114.66;;;3.26;100.00
32791;BME280;19143;59.322;14.502;2023-02-12T11:03:01;101127.94;;;3.21;100.00
32791;BME280;19143;59.322;14.502;2023-02-12T11:05:31;101134.28;;;3.31;100.00
32791;BME280;19143;59.322;14.502;2023-02-12T11:07:58;101111.44;;;3.24;100.00
32791;BME280;19143;59.322;14.502;2023-02-12T11:10:41;101118.09;;;3.38;100.00
32791;BME280;19143;59.322;14.502;2023-02-12T11:16:39;101120.78;;;3.38;100.00
32791;BME280;19143;59.322;14.502;2023-02-12T11:19:19;101107.09;;;3.34;100.00
32791;BME280;19143;59.322;14.502;2023-02-12T11:22:07;101132.53;;;3.54;100.00
32791;BME280;19143;59.322;14.502;2023-02-12T11:24:36;101102.31;;;3.36;100.00
32791;BME280;19143;59.322;14.502;2023-02-12T11:30:17;101129.66;;;3.43;100.00
32791;BME280;19143;59.322;14.502;2023-02-12T11:32:51;101117.78;;;3.51;100.00
32791;BME280;19143;59.322;14.502;2023-02-12T11:35:19;101133.56;;;3.69;100.00
32791;BME280;19143;59.322;14.502;2023-02-12T11:37:58;101138.34;;;3.67;100.00
32791;BME280;19143;59.322;14.502;2023-02-12T11:40:27;101143.63;;;3.79;100.00
32791;BME280;19143;59.322;14.502;2023-02-12T11:42:56;101142.22;;;3.93;100.00
32791;BME280;19143;59.322;14.502;2023-02-12T11:45:30;101143.03;;;3.94;100.00
32791;BME280;19143;59.322;14.502;2023-02-12T11:47:58;101150.34;;;3.98;100.00
32791;BME280;19143;59.322;14.502;2023-02-12T11:50:28;101155.38;;;3.95;100.00
32791;BME280;19143;59.322;14.502;2023-02-12T11:53:16;101149.31;;;3.99;100.00
32791;BME280;19143;59.322;14.502;2023-02-12T11:55:53;101129.28;;;3.85;100.00
32791;BME280;19143;59.322;14.502;2023-02-12T11:58:22;101138.66;;;4.04;100.00
32791;BME280;19143;59.322;14.502;2023-02-12T12:00:55;101145.81;;;4.15;100.00
32791;BME280;19143;59.322;14.502;2023-02-12T12:03:27;101155.28;;;3.90;100.00
32791;BME280;19143;59.322;14.502;2023-02-12T12:06:00;101119.91;;;3.99;100.00
32791;BME280;19143;59.322;14.502;2023-02-12T12:08:38;101138.50;;;3.94;100.00
32791;BME280;19143;59.322;14.502;2023-02-12T12:11:11;101150.16;;;4.22;100.00
32791;BME280;19143;59.322;14.502;2023-02-12T12:13:45;101133.47;;;4.14;100.00
32791;BME280;19143;59.322;14.502;2023-02-12T12:16:19;101128.78;;;4.05;100.00
32791;BME280;19143;59.322;14.502;2023-02-12T12:19:13;101134.13;;;4.22;100.00
32791;BME280;19143;59.322;14.502;2023-02-12T12:22:02;101129.59;;;4.05;100.00
32791;BME280;19143;59.322;14.502;2023-02-12T12:24:36;101143.22;;;4.04;100.00
32791;BME280;19143;59.322;14.502;2023-02-12T12:27:13;101144.41;;;4.13;100.00
32791;BME280;19143;59.322;14.502;2023-02-12T12:30:07;101118.28;;;3.98;100.00
32791;BME280;19143;59.322;14.502;2023-02-12T12:32:38;101136.97;;;4.15;100.00
32791;BME280;19143;59.322;14.502;2023-02-12T12:35:10;101140.69;;;4.14;100.00
32791;BME280;19143;59.322;14.502;2023-02-12T12:37:42;101131.69;;;4.03;100.00
32791;BME280;19143;59.322;14.502;2023-02-12T12:40:28;101128.16;;;3.98;100.00
32791;BME280;19143;59.322;14.502;2023-02-12T12:43:06;101132.34;;;4.10;100.00
32791;BME280;19143;59.322;14.502;2023-02-12T12:46:05;101131.53;;;4.10;100.00
32791;BME280;19143;59.322;14.502;2023-02-12T12:48:58;101144.31;;;4.25;100.00
32791;BME280;19143;59.322;14.502;2023-02-12T12:51:47;101138.31;;;4.17;100.00
32791;BME280;19143;59.322;14.502;2023-02-12T12:54:31;101146.59;;;4.33;100.00
32791;BME280;19143;59.322;14.502;2023-02-12T12:57:05;101146.50;;;4.28;100.00
32791;BME280;19143;59.322;14.502;2023-02-12T13:00:02;101145.00;;;4.37;100.00
32791;BME280;19143;59.322;14.502;2023-02-12T13:02:49;101147.63;;;4.32;100.00
32791;BME280;19143;59.322;14.502;2023-02-12T13:05:46;101142.47;;;4.47;100.00
32791;BME280;19143;59.322;14.502;2023-02-12T13:08:29;101127.09;;;4.37;100.00